Prestwick Rnas, United Kingdom

3:52 AM GMT on January 25, 2015 (GMT +0000)
Monkton, S Ayrshire | Change Station
CLOSE
Current Station
Personal Weather Station
Location: Monkton, SOUTH AYRSHIRE
Elevation: 89 ft
Nearby Weather Stations

Elev 89 ft 55.52 °N, 4.60 °W | Updated 6 minutes ago

Overcast
Overcast
43.3 °F
Feels Like 38 °F
N
9.8
Wind Variable Wind from North
Gusts 14.5 mph

Today
High -- | Low -- °F
--% Chance of Precip.
Yesterday
High -- | Low -- °F
Precip. -- in
8:23 AM 4:37 PM
Waxing Crescent, 28% visible
Pressure 30.24 in
Visibility 6.2 miles
Clouds Few 1500 ft
Mostly Cloudy 2600 ft
Overcast 3900 ft
Windchill 38 °F
Dew Point 36 °F
Humidity 75%
Rainfall 0.00 in
Snow Depth Not available.
UV 0 out of 12
Pollen Not available.
Air Quality Not available.
Flu Activity Not available.
METAR EGPF 250320Z AUTO 23012KT 9999 -RA FEW015 BKN026 OVC039 06/04 Q1024 RERA

More Conditions Fewer Conditions

Pressure 30.24 in
Visibility 6.2 miles
Clouds Few 1500 ft
Mostly Cloudy 2600 ft
Overcast 3900 ft
Windchill 38 °F
Dew Point 36 °F
Humidity 75%
Rainfall 0.00 in
Snow Depth Not available.
UV 0 out of 12
Pollen Not available.
Air Quality Not available.
Flu Activity Not available.
METAR EGPF 250320Z AUTO 23012KT 9999 -RA FEW015 BKN026 OVC039 06/04 Q1024 RERA

More Conditions Fewer Conditions

10-Day Weather Forecast

Almanac

Astronomy

Jan. 25, 2015 Rise Set
Actual Time
Civil Twilight
Nautical Twilight
Astronomical Twilight
Moon
Length of Visible Light
Length of Day
Tomorrow will be .
, % of the Moon is Illuminated

Today's Extremes

Country Highs Country Lows

Community

WunderPhotos

Upload Photos

1,789,825 photos uploaded!

WunderBlogs® & News

Nearby

Air Quality

  Air Quality AQ Index Pollutant
Not available.

Snow Depth

Station Depth Elevation

Earthquake Activity

City Distance Mag. Time & Date
Minimum magnitude displayed is 2.5.

Coastal Water Temperatures

Place Temperature

Nearby Weather Stations